Time;durP1;ratioP1;P1;durP2;ratioP2;P2;SDS_P1;SDS_P2;PMS_P1;PMS_P2;Temp;Humidity;BMP_temperature;BMP_pressure;BME280_temperature;BME280_humidity;BME280_pressure;Samples;Min_cycle;Max_cycle;Signal;HPM_P1;HPM_P2
2023/07/01 00:00:08;;;;;;;;;;;;;;;22.54;57.42;99170.50;4472047;32;34372;-87
2023/07/01 00:02:40;;;;;;;;;;;;;;;22.45;57.77;99170.59;4479721;32;33968;-86
2023/07/01 00:05:10;;;;;;;;;;;;;;;22.37;58.03;99178.63;4468599;32;33888;-89
2023/07/01 00:07:38;;;;;;;;;;;;;;;22.34;58.11;99170.75;4475195;32;34184;-87
2023/07/01 00:10:06;;;;;;;;;;;;;;;22.11;59.18;99176.28;4481905;32;33286;-85
2023/07/01 00:12:33;;;;;;;;;;;;;;;21.93;60.18;99172.09;4471677;32;33961;-83
2023/07/01 00:15:00;;;;;;;;;;;;;;;21.27;62.86;99172.72;4478556;32;34977;-85
2023/07/01 00:17:28;;;;;;;;;;;;;;;21.75;61.00;99165.28;4482387;32;34264;-84
2023/07/01 00:19:55;;;;;;;;;;;;;;;21.78;60.73;99167.84;4483711;32;33459;-85
2023/07/01 00:22:22;;;;;;;;;;;;;;;21.77;60.65;99171.41;4473954;32;34219;-84
2023/07/01 00:24:50;;;;;;;;;;;;;;;21.70;60.83;99172.34;4475113;32;33836;-81
2023/07/01 00:27:17;;;;;;;;;;;;;;;22.24;58.75;99168.22;4475619;32;34815;-88
2023/07/01 00:29:44;;;;;;;;;;;;;;;21.84;59.97;99166.91;4479458;32;33206;-88
2023/07/01 00:32:12;;;;;;;;;;;;;;;21.91;59.75;99165.97;4475173;32;33613;-86
2023/07/01 00:34:39;;;;;;;;;;;;;;;21.66;61.00;99167.12;4480468;32;34145;-81
2023/07/01 00:37:07;;;;;;;;;;;;;;;21.24;62.45;99163.97;4476327;32;33684;-84
2023/07/01 00:39:34;;;;;;;;;;;;;;;21.52;61.44;99160.25;4474710;32;33548;-84
2023/07/01 00:42:02;;;;;;;;;;;;;;;21.34;62.16;99166.53;4480687;32;32846;-85
2023/07/01 00:44:29;;;;;;;;;;;;;;;21.60;61.20;99157.53;4484848;32;33835;-86
2023/07/01 00:46:56;;;;;;;;;;;;;;;21.65;60.62;99160.97;4464680;32;34294;-85
2023/07/01 00:49:24;;;;;;;;;;;;;;;21.27;62.46;99162.19;4478138;32;33017;-86
2023/07/01 00:51:51;;;;;;;;;;;;;;;21.71;60.27;99155.66;4482313;32;34500;-82
2023/07/01 00:54:18;;;;;;;;;;;;;;;21.74;60.71;99155.59;4484289;32;33946;-87
2023/07/01 00:56:46;;;;;;;;;;;;;;;21.07;62.58;99150.94;4478933;32;33851;-89
2023/07/01 00:59:13;;;;;;;;;;;;;;;21.36;61.76;99151.59;4476729;32;33498;-84
2023/07/01 01:01:41;;;;;;;;;;;;;;;21.13;62.95;99151.78;4473846;32;34178;-87
2023/07/01 01:04:38;;;;;;;;;;;;;;;21.71;59.96;99145.13;4480307;32;34849;-86
2023/07/01 01:07:07;;;;;;;;;;;;;;;21.77;60.00;99136.25;4465530;32;33808;-84
2023/07/01 01:09:41;;;;;;;;;;;;;;;21.67;59.75;99134.59;4474843;32;33935;-84
2023/07/01 01:12:09;;;;;;;;;;;;;;;21.65;60.13;99134.59;4467554;32;34024;-84
2023/07/01 01:14:37;;;;;;;;;;;;;;;21.58;60.15;99128.53;4471410;32;35015;-85
2023/07/01 01:17:05;;;;;;;;;;;;;;;21.56;60.11;99129.47;4476571;32;33610;-87
2023/07/01 01:19:39;;;;;;;;;;;;;;;21.40;61.25;99128.69;4467656;32;33919;-89
2023/07/01 01:22:07;;;;;;;;;;;;;;;21.38;60.69;99119.94;4470094;32;34461;-83
2023/07/01 01:24:35;;;;;;;;;;;;;;;21.23;61.36;99126.25;4480824;32;33884;-85
2023/07/01 01:27:04;;;;;;;;;;;;;;;21.13;61.55;99119.28;4475333;32;34566;-83
2023/07/01 01:29:32;;;;;;;;;;;;;;;21.30;60.83;99121.78;4479208;32;33015;-88
2023/07/01 01:31:59;;;;;;;;;;;;;;;20.95;63.19;99123.81;4484156;32;34841;-85
2023/07/01 01:34:26;;;;;;;;;;;;;;;20.73;64.05;99120.50;4481283;32;33267;-86
2023/07/01 01:36:54;;;;;;;;;;;;;;;20.49;65.14;99123.25;4477937;32;34183;-83
2023/07/01 01:39:22;;;;;;;;;;;;;;;20.73;64.50;99125.75;4470735;32;33136;-83
2023/07/01 01:41:54;;;;;;;;;;;;;;;21.02;63.21;99128.16;4470599;32;34620;-84
2023/07/01 01:44:25;;;;;;;;;;;;;;;21.02;63.56;99125.53;4471371;32;34885;-90
2023/07/01 01:46:52;;;;;;;;;;;;;;;20.57;65.34;99121.44;4471617;32;33138;-81
2023/07/01 01:49:20;;;;;;;;;;;;;;;20.75;64.66;99129.25;4481326;32;32975;-86
2023/07/01 01:51:47;;;;;;;;;;;;;;;20.81;64.05;99123.06;4471062;32;34015;-84
2023/07/01 01:54:14;;;;;;;;;;;;;;;20.55;64.95;99126.75;4473570;32;34186;-85
2023/07/01 01:56:42;;;;;;;;;;;;;;;20.39;65.41;99125.06;4472615;32;33455;-90
2023/07/01 01:59:09;;;;;;;;;;;;;;;20.53;65.15;99128.50;4481036;32;33149;-88
2023/07/01 02:01:36;;;;;;;;;;;;;;;20.28;66.02;99121.62;4468755;32;34578;-84
2023/07/01 02:04:04;;;;;;;;;;;;;;;20.69;64.29;99118.78;4474643;32;33964;-87
2023/07/01 02:06:34;;;;;;;;;;;;;;;20.56;64.91;99122.34;4477702;32;34855;-85
2023/07/01 02:09:04;;;;;;;;;;;;;;;21.14;62.13;99115.78;4475391;32;32927;-83
2023/07/01 02:11:31;;;;;;;;;;;;;;;21.38;60.84;99122.56;4472062;32;33899;-88
2023/07/01 02:13:58;;;;;;;;;;;;;;;21.24;61.59;99117.44;4471011;32;34890;-82
2023/07/01 02:16:25;;;;;;;;;;;;;;;21.25;61.08;99119.19;4476386;32;34725;-89
2023/07/01 02:18:53;;;;;;;;;;;;;;;20.98;62.30;99115.91;4472213;32;33131;-86
2023/07/01 02:21:20;;;;;;;;;;;;;;;20.55;64.56;99121.47;4476027;32;33911;-86
2023/07/01 02:23:48;;;;;;;;;;;;;;;21.17;61.67;99123.63;4482838;32;33900;-87
2023/07/01 02:26:15;;;;;;;;;;;;;;;20.43;65.31;99121.53;4482350;32;34481;-85
2023/07/01 02:28:42;;;;;;;;;;;;;;;20.32;66.00;99123.34;4486005;32;32928;-85
2023/07/01 02:31:10;;;;;;;;;;;;;;;20.35;65.84;99118.09;4483439;32;34134;-89
2023/07/01 02:33:37;;;;;;;;;;;;;;;20.44;65.43;99128.56;4482405;32;34146;-87
2023/07/01 02:36:04;;;;;;;;;;;;;;;20.90;63.16;99123.00;4472946;32;33675;-83
2023/07/01 02:38:32;;;;;;;;;;;;;;;20.49;64.62;99126.75;4481278;32;33384;-87
2023/07/01 02:40:59;;;;;;;;;;;;;;;20.93;62.55;99116.84;4479546;32;33797;-86
2023/07/01 02:43:26;;;;;;;;;;;;;;;20.87;62.50;99114.25;4480039;32;33974;-85
2023/07/01 02:45:54;;;;;;;;;;;;;;;20.91;61.97;99108.94;4480555;32;34794;-86
2023/07/01 02:48:22;;;;;;;;;;;;;;;21.07;61.33;99114.09;4485303;32;33651;-87
2023/07/01 02:50:49;;;;;;;;;;;;;;;20.83;62.18;99113.41;4480912;32;33692;-89
2023/07/01 02:53:18;;;;;;;;;;;;;;;20.80;63.05;99122.22;4477208;32;34549;-87
2023/07/01 02:55:45;;;;;;;;;;;;;;;20.18;65.77;99121.66;4480722;32;33661;-84
2023/07/01 02:58:12;;;;;;;;;;;;;;;20.15;66.19;99121.69;4469937;32;33350;-91
2023/07/01 03:00:40;;;;;;;;;;;;;;;20.55;64.73;99125.84;4472628;32;33702;-90
2023/07/01 03:03:07;;;;;;;;;;;;;;;20.56;64.62;99128.47;4484950;32;34265;-86
2023/07/01 03:05:35;;;;;;;;;;;;;;;20.13;66.20;99118.22;4485589;32;34169;-84
2023/07/01 03:08:05;;;;;;;;;;;;;;;20.91;63.06;99119.47;4482374;32;33461;-85
2023/07/01 03:10:33;;;;;;;;;;;;;;;20.59;64.12;99115.34;4484647;32;33799;-88
2023/07/01 03:13:00;;;;;;;;;;;;;;;21.16;61.60;99127.19;4483428;32;33853;-84
2023/07/01 03:15:27;;;;;;;;;;;;;;;20.26;65.28;99118.13;4473354;32;35058;-87
2023/07/01 03:17:55;;;;;;;;;;;;;;;20.56;63.69;99119.72;4475785;32;33615;-87
2023/07/01 03:20:23;;;;;;;;;;;;;;;20.81;62.06;99112.53;4476927;32;34227;-88
2023/07/01 03:22:56;;;;;;;;;;;;;;;20.69;62.35;99112.66;4477049;32;33850;-86
2023/07/01 03:25:24;;;;;;;;;;;;;;;20.73;62.48;99114.38;4470503;32;33202;-84
2023/07/01 03:27:51;;;;;;;;;;;;;;;20.58;63.35;99110.06;4478477;32;34555;-89
2023/07/01 03:30:19;;;;;;;;;;;;;;;20.39;64.91;99111.91;4483050;32;34892;-85
2023/07/01 03:32:46;;;;;;;;;;;;;;;20.08;66.16;99114.72;4485038;32;33903;-84
2023/07/01 03:35:15;;;;;;;;;;;;;;;19.87;67.17;99120.06;4477788;32;34828;-89
2023/07/01 03:37:42;;;;;;;;;;;;;;;20.41;65.38;99116.28;4478634;32;34097;-88
2023/07/01 03:40:10;;;;;;;;;;;;;;;20.48;64.72;99108.38;4482931;32;33811;-86
2023/07/01 03:42:38;;;;;;;;;;;;;;;20.08;66.61;99114.72;4472995;32;34715;-86
2023/07/01 03:45:06;;;;;;;;;;;;;;;19.78;67.64;99111.34;4475211;32;34166;-86
2023/07/01 03:47:34;;;;;;;;;;;;;;;20.01;67.10;99107.72;4484974;32;33327;-85
2023/07/01 03:50:01;;;;;;;;;;;;;;;20.38;65.68;99116.31;4484871;32;35052;-90
2023/07/01 03:52:29;;;;;;;;;;;;;;;20.43;65.38;99111.00;4479736;32;34980;-89
2023/07/01 03:54:57;;;;;;;;;;;;;;;20.54;65.09;99114.44;4484944;32;33958;-91
2023/07/01 03:57:24;;;;;;;;;;;;;;;20.22;66.23;99112.91;4476626;32;33104;-87
2023/07/01 03:59:51;;;;;;;;;;;;;;;20.34;65.88;99105.81;4481157;32;33939;-88
2023/07/01 04:02:19;;;;;;;;;;;;;;;20.61;64.83;99100.41;4484368;32;33504;-92
2023/07/01 04:04:47;;;;;;;;;;;;;;;21.25;62.29;99108.66;4478521;32;34897;-88
2023/07/01 04:07:15;;;;;;;;;;;;;;;21.17;62.01;99113.09;4471393;32;33421;-89
2023/07/01 04:09:43;;;;;;;;;;;;;;;21.23;62.33;99105.16;4476160;32;33918;-88
2023/07/01 04:12:11;;;;;;;;;;;;;;;21.06;62.96;99099.19;4481367;32;33218;-87
2023/07/01 04:14:38;;;;;;;;;;;;;;;21.23;62.43;99105.16;4473360;32;34309;-89
2023/07/01 04:17:05;;;;;;;;;;;;;;;21.21;62.81;99112.22;4479952;32;33509;-84
2023/07/01 04:19:33;;;;;;;;;;;;;;;20.78;64.81;99105.56;4484773;32;34335;-89
2023/07/01 04:22:00;;;;;;;;;;;;;;;20.62;65.32;99096.88;4484108;32;34559;-84
2023/07/01 04:24:27;;;;;;;;;;;;;;;20.65;65.38;99098.62;4469139;32;33923;-90
2023/07/01 04:26:55;;;;;;;;;;;;;;;20.76;65.09;99093.28;4471859;32;33797;-86
2023/07/01 04:29:22;;;;;;;;;;;;;;;21.44;62.71;99100.59;4484901;32;34512;-90
2023/07/01 04:31:50;;;;;;;;;;;;;;;21.60;62.41;99094.28;4472690;32;33967;-86
2023/07/01 04:34:17;;;;;;;;;;;;;;;21.57;62.18;99094.28;4481649;32;34133;-88
2023/07/01 04:36:44;;;;;;;;;;;;;;;21.66;61.85;99095.97;4472531;32;33842;-86
2023/07/01 04:39:12;;;;;;;;;;;;;;;21.84;61.18;99095.72;4484823;32;33407;-83
2023/07/01 04:41:40;;;;;;;;;;;;;;;21.92;61.02;99095.63;4484608;32;34842;-90
2023/07/01 04:44:07;;;;;;;;;;;;;;;21.70;62.04;99095.91;4470198;32;34201;-86
2023/07/01 04:46:34;;;;;;;;;;;;;;;21.63;62.47;99104.75;4484065;32;34127;-86
2023/07/01 04:49:02;;;;;;;;;;;;;;;21.55;63.10;99101.34;4477225;32;33321;-88
2023/07/01 04:51:29;;;;;;;;;;;;;;;21.65;62.71;99102.97;4470000;32;33969;-86
2023/07/01 04:53:56;;;;;;;;;;;;;;;21.87;62.17;99093.06;4484233;32;33622;-86
2023/07/01 04:56:25;;;;;;;;;;;;;;;22.08;61.75;99097.19;4481659;32;33900;-88
2023/07/01 04:58:53;;;;;;;;;;;;;;;21.87;62.28;99092.22;4484641;32;34824;-88
2023/07/01 05:01:20;;;;;;;;;;;;;;;22.32;61.08;99095.16;4483224;32;34144;-88
2023/07/01 05:03:48;;;;;;;;;;;;;;;22.33;61.06;99091.63;4476528;32;31696;-85
2023/07/01 05:06:15;;;;;;;;;;;;;;;22.42;60.89;99099.38;4477417;32;33234;-90
2023/07/01 05:08:42;;;;;;;;;;;;;;;22.56;60.38;99094.78;4482090;32;33463;-84
2023/07/01 05:11:10;;;;;;;;;;;;;;;22.62;60.12;99093.84;4480974;32;34955;-85
2023/07/01 05:13:37;;;;;;;;;;;;;;;22.65;60.68;99092.91;4482137;32;34092;-88
2023/07/01 05:16:05;;;;;;;;;;;;;;;22.85;60.03;99088.19;4484421;32;33112;-88
2023/07/01 05:18:32;;;;;;;;;;;;;;;22.90;59.93;99083.69;4480369;32;34225;-87
2023/07/01 05:21:00;;;;;;;;;;;;;;;22.77;60.67;99087.41;4474200;32;34274;-89
2023/07/01 05:23:27;;;;;;;;;;;;;;;22.77;61.16;99092.69;4483694;32;33977;-89
2023/07/01 05:25:54;;;;;;;;;;;;;;;22.99;60.44;99093.22;4471157;32;33694;-91
2023/07/01 05:28:22;;;;;;;;;;;;;;;23.34;59.66;99095.25;4473750;32;32920;-88
2023/07/01 05:30:49;;;;;;;;;;;;;;;23.46;59.38;99104.72;4479520;32;34779;-86
2023/07/01 05:33:17;;;;;;;;;;;;;;;23.62;58.91;99096.50;4478477;32;34843;-86
2023/07/01 05:35:44;;;;;;;;;;;;;;;23.67;58.75;99103.44;4474936;32;31277;-89
2023/07/01 05:38:12;;;;;;;;;;;;;;;23.77;58.59;99103.28;4476069;32;33802;-89
2023/07/01 05:40:39;;;;;;;;;;;;;;;23.87;58.13;99100.44;4478993;32;33952;-88
2023/07/01 05:43:06;;;;;;;;;;;;;;;23.96;57.88;99098.50;4477079;32;35928;-86
2023/07/01 05:45:33;;;;;;;;;;;;;;;23.95;58.08;99108.19;4477018;32;33104;-87
2023/07/01 05:48:01;;;;;;;;;;;;;;;24.06;58.08;99106.22;4482813;32;33907;-86
2023/07/01 05:50:28;;;;;;;;;;;;;;;24.23;57.07;99097.91;4471105;32;33824;-88
2023/07/01 05:52:55;;;;;;;;;;;;;;;24.24;57.38;99109.34;4480442;32;33788;-88
2023/07/01 05:55:23;;;;;;;;;;;;;;;24.26;57.54;99104.91;4479892;32;34092;-89
2023/07/01 05:57:50;;;;;;;;;;;;;;;24.29;57.60;99099.56;4479899;32;34230;-87
2023/07/01 06:00:17;;;;;;;;;;;;;;;24.55;57.30;99098.09;4470727;32;34142;-89
2023/07/01 06:02:45;;;;;;;;;;;;;;;24.76;55.94;99105.53;4479723;32;34006;-86
2023/07/01 06:05:12;;;;;;;;;;;;;;;24.87;55.46;99100.84;4478244;32;33417;-89
2023/07/01 06:07:39;;;;;;;;;;;;;;;24.76;55.50;99102.88;4482067;32;33985;-85
2023/07/01 06:10:07;;;;;;;;;;;;;;;24.90;55.20;99106.09;4483787;32;34042;-86
2023/07/01 06:12:34;;;;;;;;;;;;;;;24.98;54.87;99102.37;4478901;32;34304;-88
2023/07/01 06:15:02;;;;;;;;;;;;;;;24.91;54.81;99104.31;4479381;32;34090;-85
2023/07/01 06:17:30;;;;;;;;;;;;;;;24.81;54.84;99106.31;4479725;32;34966;-86
2023/07/01 06:19:58;;;;;;;;;;;;;;;24.88;53.75;99107.91;4477688;32;33525;-88
2023/07/01 06:22:25;;;;;;;;;;;;;;;25.03;53.36;99106.63;4476570;32;34202;-86
2023/07/01 06:24:52;;;;;;;;;;;;;;;25.38;52.56;99109.31;4482132;32;32890;-85
2023/07/01 06:27:19;;;;;;;;;;;;;;;25.27;53.05;99110.47;4482641;32;34925;-88
2023/07/01 06:29:47;;;;;;;;;;;;;;;25.63;52.60;99107.75;4474382;32;33890;-88
2023/07/01 06:32:14;;;;;;;;;;;;;;;25.80;52.54;99114.34;4478373;32;34846;-86
2023/07/01 06:34:42;;;;;;;;;;;;;;;25.97;52.25;99116.56;4482682;32;33294;-85
2023/07/01 06:37:09;;;;;;;;;;;;;;;26.06;50.55;99111.84;4481452;32;34304;-86
2023/07/01 06:39:37;;;;;;;;;;;;;;;26.05;50.82;99110.09;4480249;32;34073;-84
2023/07/01 06:42:05;;;;;;;;;;;;;;;26.23;50.69;99108.72;4476889;32;34164;-86
2023/07/01 06:44:32;;;;;;;;;;;;;;;26.32;50.20;99102.22;4478038;32;32991;-85
2023/07/01 06:47:00;;;;;;;;;;;;;;;26.29;50.29;99107.66;4479673;32;34406;-86
2023/07/01 06:49:28;;;;;;;;;;;;;;;26.22;49.47;99111.41;4481665;32;33951;-86
2023/07/01 06:51:55;;;;;;;;;;;;;;;26.36;47.32;99103.88;4481710;32;34273;-86
2023/07/01 06:54:23;;;;;;;;;;;;;;;26.49;48.32;99104.38;4473908;32;33396;-84
2023/07/01 06:56:50;;;;;;;;;;;;;;;26.51;45.97;99097.22;4481397;32;34217;-85
2023/07/01 06:59:18;;;;;;;;;;;;;;;26.65;46.76;99099.47;4477038;32;35077;-84
2023/07/01 07:01:45;;;;;;;;;;;;;;;26.92;47.12;99102.16;4473404;32;34165;-86
2023/07/01 07:04:13;;;;;;;;;;;;;;;27.19;45.93;99095.88;4478882;32;33275;-85
2023/07/01 07:06:40;;;;;;;;;;;;;;;27.47;46.11;99084.31;4480970;32;34199;-84
2023/07/01 07:09:07;;;;;;;;;;;;;;;27.71;45.74;99087.00;4479473;32;34132;-84
2023/07/01 07:11:35;;;;;;;;;;;;;;;27.96;45.43;99087.84;4476231;32;33913;-84
2023/07/01 07:14:02;;;;;;;;;;;;;;;28.06;44.35;99082.19;4480402;32;32066;-84
2023/07/01 07:16:32;;;;;;;;;;;;;;;28.26;43.60;99084.06;4478395;32;33871;-86
2023/07/01 07:18:59;;;;;;;;;;;;;;;28.40;43.79;99081.75;4483037;32;33833;-84
2023/07/01 07:21:27;;;;;;;;;;;;;;;28.50;43.63;99074.25;4482061;32;34111;-85
2023/07/01 07:23:55;;;;;;;;;;;;;;;28.68;43.81;99078.84;4477249;32;34031;-86
2023/07/01 07:26:22;;;;;;;;;;;;;;;29.01;42.55;99073.94;4474410;32;34239;-84
2023/07/01 07:28:49;;;;;;;;;;;;;;;29.12;42.57;99075.25;4476737;32;34141;-85
2023/07/01 07:31:17;;;;;;;;;;;;;;;29.28;42.55;99070.16;4480109;32;34186;-87
2023/07/01 07:33:44;;;;;;;;;;;;;;;29.50;41.92;99060.28;4482276;32;33152;-85
2023/07/01 07:36:11;;;;;;;;;;;;;;;29.64;40.91;99066.81;4479504;32;33814;-87
2023/07/01 07:38:39;;;;;;;;;;;;;;;29.82;40.58;99055.31;4477671;32;34276;-84
2023/07/01 07:41:06;;;;;;;;;;;;;;;29.75;40.09;99053.88;4475841;32;34691;-84
2023/07/01 07:43:33;;;;;;;;;;;;;;;29.96;39.69;99052.88;4481755;32;33318;-83
2023/07/01 07:46:02;;;;;;;;;;;;;;;30.24;39.20;99056.91;4480682;32;32531;-87
2023/07/01 07:48:29;;;;;;;;;;;;;;;30.57;39.10;99056.22;4477064;32;35021;-84
2023/07/01 07:50:58;;;;;;;;;;;;;;;30.78;38.54;99047.13;4484010;32;33883;-84
2023/07/01 07:53:26;;;;;;;;;;;;;;;31.04;38.33;99053.03;4479395;32;33442;-87
2023/07/01 07:55:54;;;;;;;;;;;;;;;31.09;37.84;99056.31;4479040;32;34184;-84
2023/07/01 07:58:21;;;;;;;;;;;;;;;31.30;37.27;99042.78;4481861;32;33556;-85
2023/07/01 08:00:51;;;;;;;;;;;;;;;31.32;36.86;99040.87;4482235;32;32891;-87
2023/07/01 08:03:19;;;;;;;;;;;;;;;31.50;36.76;99042.59;4482177;32;34114;-87
2023/07/01 08:05:48;;;;;;;;;;;;;;;31.61;36.48;99035.81;4481356;32;34883;-85
2023/07/01 08:08:15;;;;;;;;;;;;;;;31.83;36.16;99022.97;4477747;32;33670;-85
2023/07/01 08:10:45;;;;;;;;;;;;;;;32.03;35.98;99031.75;4478463;32;33564;-90
2023/07/01 08:13:14;;;;;;;;;;;;;;;32.20;36.12;99029.00;4477584;32;33117;-83
2023/07/01 08:15:41;;;;;;;;;;;;;;;32.34;35.85;99020.16;4482875;32;34735;-83
2023/07/01 08:18:09;;;;;;;;;;;;;;;32.35;35.38;99021.03;4482212;32;33991;-87
2023/07/01 08:20:38;;;;;;;;;;;;;;;32.61;34.59;99028.47;4475934;32;34073;-87
2023/07/01 08:23:05;;;;;;;;;;;;;;;32.62;34.84;99022.12;4481192;32;33454;-87
2023/07/01 08:25:32;;;;;;;;;;;;;;;32.58;34.75;99017.91;4482400;32;33657;-87
2023/07/01 08:28:00;;;;;;;;;;;;;;;32.78;34.81;99021.22;4482848;32;34176;-86
2023/07/01 08:30:27;;;;;;;;;;;;;;;32.91;34.41;99024.91;4472485;32;33080;-85
2023/07/01 08:32:55;;;;;;;;;;;;;;;32.99;33.67;99016.41;4477526;32;32943;-85
2023/07/01 08:35:22;;;;;;;;;;;;;;;33.04;33.45;99015.16;4475768;32;35016;-87
2023/07/01 08:37:50;;;;;;;;;;;;;;;33.23;33.85;99009.59;4481818;32;34779;-88
2023/07/01 08:40:18;;;;;;;;;;;;;;;33.25;32.99;99013.03;4468914;32;34184;-86
2023/07/01 08:42:48;;;;;;;;;;;;;;;33.37;33.07;99011.41;4474294;32;33362;-86
2023/07/01 08:45:16;;;;;;;;;;;;;;;33.36;32.48;99003.44;4475653;32;33851;-86
2023/07/01 08:47:43;;;;;;;;;;;;;;;33.62;32.67;99004.50;4479648;32;34146;-84
2023/07/01 08:50:11;;;;;;;;;;;;;;;33.66;32.79;99000.69;4459130;32;32207;-87
2023/07/01 08:52:40;;;;;;;;;;;;;;;33.91;32.33;99009.87;4480836;32;32843;-91
2023/07/01 08:55:08;;;;;;;;;;;;;;;33.96;32.34;99007.75;4471504;32;34884;-85
2023/07/01 08:57:37;;;;;;;;;;;;;;;34.08;32.62;99012.34;4482976;32;34066;-84
2023/07/01 09:00:06;;;;;;;;;;;;;;;34.12;32.67;99011.19;4481801;32;34077;-86
2023/07/01 09:02:33;;;;;;;;;;;;;;;34.33;31.98;99002.72;4478390;32;33677;-89
2023/07/01 09:05:01;;;;;;;;;;;;;;;34.58;30.92;99002.81;4479406;32;33900;-90
2023/07/01 09:07:29;;;;;;;;;;;;;;;34.12;31.01;99003.13;4483086;32;34336;-89
2023/07/01 09:09:57;;;;;;;;;;;;;;;34.06;32.06;99008.91;4475774;32;34589;-86
2023/07/01 09:12:28;;;;;;;;;;;;;;;34.08;31.88;99004.28;4472003;32;33280;-89
2023/07/01 09:14:58;;;;;;;;;;;;;;;34.18;30.99;99008.13;4482355;32;35113;-85
2023/07/01 09:17:27;;;;;;;;;;;;;;;33.89;31.60;99008.16;4482597;32;34312;-88
2023/07/01 09:19:56;;;;;;;;;;;;;;;33.90;32.31;99003.63;4473271;32;34863;-86
2023/07/01 09:22:24;;;;;;;;;;;;;;;33.98;31.28;99005.81;4473291;32;33287;-87
2023/07/01 09:24:51;;;;;;;;;;;;;;;33.99;31.51;99007.56;4471532;32;33332;-82
2023/07/01 09:27:18;;;;;;;;;;;;;;;34.10;31.73;98993.44;4474509;32;33585;-85
2023/07/01 09:29:46;;;;;;;;;;;;;;;34.12;32.26;99002.28;4474946;32;32728;-86
2023/07/01 09:32:28;;;;;;;;;;;;;;;34.00;31.86;99001.25;4470511;32;32929;-86
2023/07/01 09:34:57;;;;;;;;;;;;;;;34.33;31.96;99005.41;4472972;32;34027;-84
2023/07/01 09:37:25;;;;;;;;;;;;;;;34.36;31.96;98989.06;4476416;32;35016;-83
2023/07/01 09:39:52;;;;;;;;;;;;;;;34.41;30.97;98992.31;4474142;32;34461;-87
2023/07/01 09:42:19;;;;;;;;;;;;;;;34.59;30.77;98996.44;4474746;32;32736;-91
2023/07/01 09:45:06;;;;;;;;;;;;;;;34.72;31.52;98995.66;4476104;32;32786;-83
2023/07/01 09:47:36;;;;;;;;;;;;;;;34.80;31.14;98998.69;4474542;32;32862;-84
2023/07/01 09:50:04;;;;;;;;;;;;;;;34.80;31.14;98993.31;4479778;32;34803;-89
2023/07/01 09:52:32;;;;;;;;;;;;;;;34.90;31.35;98996.22;4482211;32;34113;-84
2023/07/01 09:55:00;;;;;;;;;;;;;;;35.04;29.09;98980.84;4481070;32;34238;-83
2023/07/01 09:57:27;;;;;;;;;;;;;;;34.80;28.49;98985.22;4477264;32;34246;-86
2023/07/01 09:59:55;;;;;;;;;;;;;;;34.63;29.92;98992.56;4484584;32;34039;-83
2023/07/01 10:02:22;;;;;;;;;;;;;;;34.79;29.74;98983.50;4470325;32;32009;-87
2023/07/01 10:04:51;;;;;;;;;;;;;;;34.96;29.91;98988.56;4482575;32;34787;-89
2023/07/01 10:07:18;;;;;;;;;;;;;;;35.26;29.00;98982.06;4484459;32;33709;-88
2023/07/01 10:09:46;;;;;;;;;;;;;;;35.17;29.59;98974.63;4484596;32;34453;-84
2023/07/01 10:12:17;;;;;;;;;;;;;;;35.09;30.29;98974.28;4474248;32;33418;-84
2023/07/01 10:14:47;;;;;;;;;;;;;;;34.97;30.06;98974.16;4483714;32;33582;-88
2023/07/01 10:17:16;;;;;;;;;;;;;;;35.18;29.73;98973.69;4476339;32;33525;-84
2023/07/01 10:19:46;;;;;;;;;;;;;;;35.22;30.26;98967.13;4480277;32;34197;-90
2023/07/01 10:22:20;;;;;;;;;;;;;;;35.11;29.83;98966.97;4483273;32;32376;-89
2023/07/01 10:25:03;;;;;;;;;;;;;;;35.24;30.07;98971.41;4472991;32;34917;-89
2023/07/01 10:27:40;;;;;;;;;;;;;;;35.27;30.30;98978.41;4481318;32;33618;-85
2023/07/01 10:30:09;;;;;;;;;;;;;;;35.03;30.86;98973.72;4473594;32;33996;-84
2023/07/01 10:32:36;;;;;;;;;;;;;;;34.40;31.14;98975.31;4483733;32;34056;-87
2023/07/01 10:35:03;;;;;;;;;;;;;;;34.90;30.41;98972.84;4479253;32;34830;-83
2023/07/01 10:37:32;;;;;;;;;;;;;;;34.57;29.64;98971.47;4478367;32;33914;-88
2023/07/01 10:39:59;;;;;;;;;;;;;;;34.80;30.06;98966.41;4471263;32;35076;-85
2023/07/01 10:42:33;;;;;;;;;;;;;;;34.97;30.64;98968.78;4479238;32;33087;-90
2023/07/01 10:45:10;;;;;;;;;;;;;;;34.93;29.91;98967.28;4481566;32;34380;-85
2023/07/01 10:47:42;;;;;;;;;;;;;;;35.14;30.45;98964.06;4481110;32;33974;-85
2023/07/01 10:50:11;;;;;;;;;;;;;;;35.29;30.44;98963.00;4480991;32;33838;-85
2023/07/01 10:52:57;;;;;;;;;;;;;;;35.20;30.14;98964.53;4470176;32;33163;-86
2023/07/01 10:55:43;;;;;;;;;;;;;;;35.02;31.12;98972.03;4481247;32;34579;-85
2023/07/01 10:58:32;;;;;;;;;;;;;;;35.02;30.54;98955.88;4479841;32;33949;-90
2023/07/01 11:01:00;;;;;;;;;;;;;;;34.75;30.04;98965.84;4480956;32;34827;-85
2023/07/01 11:03:33;;;;;;;;;;;;;;;34.75;31.04;98971.22;4477458;32;33713;-88
2023/07/01 11:06:05;;;;;;;;;;;;;;;34.69;30.62;98979.72;4482300;32;33277;-86
2023/07/01 11:08:34;;;;;;;;;;;;;;;34.73;30.65;98981.22;4479966;32;33650;-83
2023/07/01 11:11:03;;;;;;;;;;;;;;;34.90;30.58;98970.16;4481480;32;34202;-84
2023/07/01 11:13:30;;;;;;;;;;;;;;;34.73;30.63;98978.53;4479464;32;34254;-84
2023/07/01 11:16:04;;;;;;;;;;;;;;;34.83;29.48;98964.37;4479301;32;32859;-84
2023/07/01 11:18:58;;;;;;;;;;;;;;;34.39;30.06;98968.22;4478448;32;32860;-89
2023/07/01 11:21:27;;;;;;;;;;;;;;;33.79;31.39;98963.19;4472389;32;34819;-84
2023/07/01 11:23:56;;;;;;;;;;;;;;;33.97;32.23;98967.34;4477641;32;33701;-84
2023/07/01 11:26:33;;;;;;;;;;;;;;;34.06;31.62;98961.38;4474751;32;33849;-89
2023/07/01 11:29:01;;;;;;;;;;;;;;;34.26;31.90;98967.31;4481479;32;34038;-84
2023/07/01 11:31:32;;;;;;;;;;;;;;;34.25;30.92;98966.44;4483383;32;33920;-84
2023/07/01 11:33:59;;;;;;;;;;;;;;;34.18;31.69;98965.13;4479891;32;34215;-84
2023/07/01 11:36:36;;;;;;;;;;;;;;;34.27;31.35;98953.75;4479542;32;34065;-87
2023/07/01 11:39:04;;;;;;;;;;;;;;;34.12;31.79;98949.37;4481732;32;34780;-84
2023/07/01 11:41:31;;;;;;;;;;;;;;;34.15;31.31;98949.22;4477786;32;34032;-85
2023/07/01 11:43:58;;;;;;;;;;;;;;;34.22;30.99;98950.50;4477031;32;33400;-84
2023/07/01 11:46:44;;;;;;;;;;;;;;;34.45;30.82;98945.44;4458160;32;34002;-87
2023/07/01 11:49:16;;;;;;;;;;;;;;;34.60;29.99;98944.38;4479895;32;34680;-86
2023/07/01 11:51:45;;;;;;;;;;;;;;;34.64;30.38;98932.44;4481213;32;34738;-82
2023/07/01 11:54:12;;;;;;;;;;;;;;;34.88;29.75;98936.28;4474762;32;32222;-91
2023/07/01 11:56:41;;;;;;;;;;;;;;;35.26;28.46;98935.47;4474032;32;33761;-84
2023/07/01 11:59:09;;;;;;;;;;;;;;;35.11;28.12;98926.59;4473641;32;36692;-85
2023/07/01 12:01:38;;;;;;;;;;;;;;;35.25;28.13;98929.19;4465373;32;33628;-87
2023/07/01 12:04:13;;;;;;;;;;;;;;;35.14;28.86;98918.31;4478514;32;34021;-83
2023/07/01 12:06:40;;;;;;;;;;;;;;;35.23;28.13;98920.34;4482341;32;35068;-85
2023/07/01 12:09:08;;;;;;;;;;;;;;;35.51;28.38;98923.78;4483850;32;33837;-91
2023/07/01 12:11:47;;;;;;;;;;;;;;;35.76;27.66;98929.13;4484419;32;33942;-83
2023/07/01 12:14:19;;;;;;;;;;;;;;;35.60;27.59;98915.00;4478257;32;33029;-87
2023/07/01 12:16:49;;;;;;;;;;;;;;;35.24;27.20;98909.50;4473463;32;34825;-82
2023/07/01 12:19:17;;;;;;;;;;;;;;;35.47;28.18;98920.44;4477905;32;33880;-85
2023/07/01 12:21:45;;;;;;;;;;;;;;;35.31;28.22;98911.72;4480847;32;34150;-87
2023/07/01 12:24:19;;;;;;;;;;;;;;;35.35;28.50;98911.44;4480786;32;33594;-82
2023/07/01 12:26:47;;;;;;;;;;;;;;;35.47;28.54;98908.81;4474148;32;34548;-81
2023/07/01 12:29:15;;;;;;;;;;;;;;;35.62;27.57;98904.97;4477106;32;34199;-89
2023/07/01 12:31:43;;;;;;;;;;;;;;;35.71;27.20;98903.50;4479504;32;34036;-85
2023/07/01 12:34:10;;;;;;;;;;;;;;;35.22;28.65;98900.66;4470558;32;33498;-85
2023/07/01 12:36:38;;;;;;;;;;;;;;;35.66;28.08;98895.72;4480382;32;34106;-86
2023/07/01 12:39:06;;;;;;;;;;;;;;;35.56;28.09;98889.28;4481096;32;33891;-81
2023/07/01 12:41:35;;;;;;;;;;;;;;;35.70;28.42;98886.47;4474475;32;35059;-86
2023/07/01 12:44:04;;;;;;;;;;;;;;;35.83;27.13;98879.22;4482126;32;33376;-87
2023/07/01 12:46:31;;;;;;;;;;;;;;;35.67;27.11;98881.31;4470842;32;33661;-86
2023/07/01 12:49:03;;;;;;;;;;;;;;;35.65;27.84;98872.44;4479490;32;34226;-87
2023/07/01 12:51:34;;;;;;;;;;;;;;;35.78;27.84;98867.06;4474857;32;33821;-85
2023/07/01 12:54:02;;;;;;;;;;;;;;;35.97;27.29;98866.53;4481066;32;32500;-86